Time;durP1;ratioP1;P1;durP2;ratioP2;P2;SDS_P1;SDS_P2;PMS_P1;PMS_P2;Temp;Humidity;BMP_temperature;BMP_pressure;BME280_temperature;BME280_humidity;BME280_pressure;Samples;Min_cycle;Max_cycle;Signal;HPM_P1;HPM_P2
2022/08/05 00:01:12;;;;;;;5.47;3.70;;;29.40;1.00;;;;;;5092907;28;20227;-73
2022/08/05 00:03:38;;;;;;;7.35;4.30;;;29.40;1.00;;;;;;5089081;28;20199;-73
2022/08/05 00:06:03;;;;;;;11.15;4.70;;;29.40;1.00;;;;;;5092664;28;20205;-74
2022/08/05 00:08:29;;;;;;;7.82;4.15;;;29.40;1.00;;;;;;5101345;28;20171;-74
2022/08/05 00:10:54;;;;;;;7.82;4.03;;;29.30;1.00;;;;;;5112521;28;20245;-73
2022/08/05 00:13:20;;;;;;;13.52;4.10;;;29.30;1.00;;;;;;5113112;28;20664;-73
2022/08/05 00:15:45;;;;;;;8.50;3.67;;;30.00;1.00;;;;;;5113844;28;20266;-74
2022/08/05 00:18:11;;;;;;;16.75;4.25;;;29.20;1.00;;;;;;5113564;28;20177;-73
2022/08/05 00:20:36;;;;;;;6.65;3.70;;;29.10;1.00;;;;;;5113164;28;20693;-73
2022/08/05 00:23:02;;;;;;;15.55;4.45;;;29.10;1.00;;;;;;5112820;28;20256;-74
2022/08/05 00:25:28;;;;;;;5.95;3.60;;;29.00;1.00;;;;;;5103504;28;20227;-74
2022/08/05 00:27:53;;;;;;;12.18;4.28;;;28.90;1.00;;;;;;5092341;28;20198;-74
2022/08/05 00:30:19;;;;;;;13.70;4.07;;;28.80;1.00;;;;;;5091879;28;20677;-74
2022/08/05 00:32:44;;;;;;;11.07;4.38;;;28.70;1.00;;;;;;5100787;28;20289;-74
2022/08/05 00:35:10;;;;;;;22.08;4.40;;;28.70;1.00;;;;;;5106651;28;20198;-74
2022/08/05 00:37:35;;;;;;;10.30;4.72;;;28.60;1.00;;;;;;5114174;28;20177;-74
2022/08/05 00:40:01;;;;;;;15.57;4.57;;;28.50;1.00;;;;;;5113333;28;20171;-74
2022/08/05 00:42:35;;;;;;;22.73;4.82;;;28.40;1.00;;;;;;5110787;28;20191;-74
2022/08/05 00:45:01;;;;;;;16.60;4.17;;;28.30;1.00;;;;;;5112547;27;20167;-74
2022/08/05 00:47:27;;;;;;;15.27;5.10;;;28.30;1.00;;;;;;5112551;28;20227;-74
2022/08/05 00:49:53;;;;;;;17.53;5.30;;;28.20;1.00;;;;;;5112567;27;20171;-74
2022/08/05 00:52:19;;;;;;;13.30;4.90;;;28.20;1.00;;;;;;5112324;28;20194;-74
2022/08/05 00:54:44;;;;;;;11.77;5.90;;;28.20;1.00;;;;;;5111183;28;20194;-74
2022/08/05 00:57:10;;;;;;;15.47;5.50;;;28.20;1.00;;;;;;5088524;28;20171;-74
2022/08/05 00:59:35;;;;;;;9.83;5.10;;;28.10;1.00;;;;;;5091109;28;20171;-73
2022/08/05 01:02:01;;;;;;;10.90;6.07;;;28.10;1.00;;;;;;5094628;28;20316;-73
2022/08/05 01:04:26;;;;;;;15.33;6.00;;;28.10;1.00;;;;;;5103891;28;20171;-74
2022/08/05 01:06:52;;;;;;;11.03;6.27;;;28.00;1.00;;;;;;5112430;28;20173;-74
2022/08/05 01:09:17;;;;;;;18.70;5.83;;;28.00;1.00;;;;;;5100956;28;20183;-74
2022/08/05 01:11:47;;;;;;;13.70;6.80;;;28.00;1.00;;;;;;5071180;28;20249;-74
2022/08/05 01:14:21;;;;;;;11.13;5.63;;;27.90;1.00;;;;;;5071950;28;20195;-73
2022/08/05 01:17:06;;;;;;;12.77;5.97;;;27.90;1.00;;;;;;5071259;28;20221;-74
2022/08/05 01:19:50;;;;;;;15.53;5.80;;;27.80;1.00;;;;;;5071874;28;20168;-74
2022/08/05 01:22:46;;;;;;;14.00;5.77;;;27.70;1.00;;;;;;5071006;28;20195;-73
2022/08/05 01:25:27;;;;;;;9.37;5.73;;;27.60;1.00;;;;;;5071348;28;20665;-74
2022/08/05 01:28:16;;;;;;;15.73;6.50;;;27.50;1.00;;;;;;5071260;28;20179;-74
2022/08/05 01:31:06;;;;;;;11.47;6.60;;;27.40;1.00;;;;;;5072030;28;20288;-73
2022/08/05 01:33:36;;;;;;;16.50;6.93;;;27.40;1.00;;;;;;5098948;28;20190;-74
2022/08/05 01:36:07;;;;;;;11.33;7.40;;;27.40;1.00;;;;;;5075353;28;20582;-73
2022/08/05 01:38:36;;;;;;;15.87;7.60;;;27.40;1.00;;;;;;5091100;28;20433;-74
2022/08/05 01:41:03;;;;;;;9.83;7.40;;;27.40;1.00;;;;;;5091430;28;20186;-74
2022/08/05 01:43:31;;;;;;;17.47;7.30;;;27.40;1.00;;;;;;5091160;28;20179;-74
2022/08/05 01:45:57;;;;;;;12.73;7.20;;;27.40;1.00;;;;;;5091618;28;20707;-72
2022/08/05 01:48:25;;;;;;;17.00;7.37;;;27.50;1.00;;;;;;5091154;28;20250;-73
2022/08/05 01:50:52;;;;;;;15.73;7.50;;;27.50;1.00;;;;;;5091301;28;20175;-72
2022/08/05 01:53:21;;;;;;;16.53;7.70;;;27.50;1.00;;;;;;5090066;28;20167;-72
2022/08/05 01:55:48;;;;;;;9.93;7.07;;;27.50;1.00;;;;;;5091207;28;20541;-72
2022/08/05 01:58:15;;;;;;;13.30;7.83;;;27.50;1.00;;;;;;5089445;28;20206;-72
2022/08/05 02:00:45;;;;;;;11.17;7.30;;;27.40;1.00;;;;;;5091115;28;20198;-72
2022/08/05 02:03:22;;;;;;;14.33;7.00;;;27.40;1.00;;;;;;5098533;28;20239;-72
2022/08/05 02:05:49;;;;;;;11.10;7.00;;;27.40;1.00;;;;;;5109209;28;20166;-72
2022/08/05 02:08:14;;;;;;;13.93;7.07;;;27.50;1.00;;;;;;5111520;28;20219;-71
2022/08/05 02:10:48;;;;;;;13.67;7.50;;;27.50;1.00;;;;;;5110914;28;20329;-72
2022/08/05 02:13:18;;;;;;;15.33;6.73;;;27.50;1.00;;;;;;5110607;28;20189;-72
2022/08/05 02:15:52;;;;;;;9.20;6.90;;;27.50;1.00;;;;;;5111756;28;20253;-72
2022/08/05 02:18:35;;;;;;;13.57;6.90;;;27.50;1.00;;;;;;5111074;28;20656;-72
2022/08/05 02:21:13;;;;;;;15.27;7.37;;;27.50;1.00;;;;;;5110519;28;20239;-72
2022/08/05 02:23:41;;;;;;;12.13;7.20;;;27.40;1.00;;;;;;5111042;28;20362;-72
2022/08/05 02:26:09;;;;;;;21.43;7.40;;;27.40;1.00;;;;;;5094591;28;20194;-72
2022/08/05 02:28:39;;;;;;;10.63;7.40;;;27.30;1.00;;;;;;5090296;28;20175;-72
2022/08/05 02:31:15;;;;;;;16.07;7.57;;;27.20;1.00;;;;;;5088970;28;20203;-72
2022/08/05 02:33:47;;;;;;;9.20;7.23;;;27.20;1.00;;;;;;5098755;28;20271;-72
2022/08/05 02:36:16;;;;;;;13.80;8.23;;;27.10;1.00;;;;;;5110957;28;20256;-72
2022/08/05 02:38:45;;;;;;;14.37;7.63;;;27.10;1.00;;;;;;5110632;28;20199;-72
2022/08/05 02:41:12;;;;;;;13.90;7.30;;;27.00;1.00;;;;;;5110412;28;20175;-72
2022/08/05 02:43:40;;;;;;;9.67;6.97;;;27.00;1.00;;;;;;5109164;28;20171;-72
2022/08/05 02:46:06;;;;;;;11.30;7.40;;;27.00;1.00;;;;;;5110842;28;20196;-72
2022/08/05 02:48:32;;;;;;;13.47;7.80;;;26.90;1.00;;;;;;5110002;28;20175;-73
2022/08/05 02:51:02;;;;;;;14.23;8.10;;;26.90;1.00;;;;;;5110423;28;20169;-72
2022/08/05 02:53:30;;;;;;;15.57;7.20;;;27.00;1.00;;;;;;5110489;28;20162;-72
2022/08/05 02:55:57;;;;;;;16.77;7.37;;;27.00;1.00;;;;;;5097805;28;20673;-73
2022/08/05 02:58:24;;;;;;;10.33;6.60;;;27.00;1.00;;;;;;5089704;28;20167;-73
2022/08/05 03:00:53;;;;;;;9.90;7.17;;;27.10;1.00;;;;;;5090680;28;20163;-72
2022/08/05 03:03:19;;;;;;;13.03;7.00;;;27.10;1.00;;;;;;5092872;28;20201;-73
2022/08/05 03:05:49;;;;;;;12.67;7.07;;;27.10;1.00;;;;;;5091874;28;20160;-72
2022/08/05 03:08:16;;;;;;;17.77;7.90;;;27.10;1.00;;;;;;5091482;28;20170;-73
2022/08/05 03:10:42;;;;;;;14.10;7.63;;;27.10;1.00;;;;;;5094028;28;20171;-73
2022/08/05 03:13:16;;;;;;;16.30;7.20;;;27.10;1.00;;;;;;5093397;28;20210;-72
2022/08/05 03:15:43;;;;;;;13.53;7.73;;;27.10;1.00;;;;;;5094304;28;20203;-73
2022/08/05 03:18:08;;;;;;;14.00;7.47;;;27.10;1.00;;;;;;5094147;28;20233;-73
2022/08/05 03:20:34;;;;;;;12.87;7.13;;;27.20;1.00;;;;;;5092835;28;20166;-73
2022/08/05 03:23:00;;;;;;;10.20;7.83;;;27.20;1.00;;;;;;5092340;28;20191;-72
2022/08/05 03:25:27;;;;;;;11.23;6.93;;;27.10;1.00;;;;;;5093997;28;20174;-73
2022/08/05 03:27:54;;;;;;;14.10;7.97;;;27.10;1.00;;;;;;5093648;28;20215;-72
2022/08/05 03:30:21;;;;;;;13.83;8.07;;;27.10;1.00;;;;;;5094243;28;20179;-73
2022/08/05 03:32:47;;;;;;;14.50;7.80;;;27.10;1.00;;;;;;5101220;28;20564;-72
2022/08/05 03:35:13;;;;;;;16.93;8.17;;;27.00;1.00;;;;;;5104892;28;20205;-72
2022/08/05 03:37:39;;;;;;;11.83;8.10;;;27.00;1.00;;;;;;5090719;28;20179;-72
2022/08/05 03:40:07;;;;;;;11.40;7.90;;;27.00;1.00;;;;;;5093653;28;20174;-72
2022/08/05 03:42:33;;;;;;;12.93;7.93;;;27.00;1.00;;;;;;5092713;28;20198;-73
2022/08/05 03:44:59;;;;;;;13.20;8.03;;;27.10;1.00;;;;;;5094147;28;20167;-73
2022/08/05 03:47:25;;;;;;;16.23;8.40;;;27.10;1.00;;;;;;5093754;28;20533;-72
2022/08/05 03:49:50;;;;;;;16.83;8.37;;;27.40;1.00;;;;;;5093740;28;20176;-73
2022/08/05 03:52:21;;;;;;;13.30;8.40;;;26.90;1.00;;;;;;5092600;28;20191;-72
2022/08/05 03:54:49;;;;;;;11.30;8.50;;;26.80;1.00;;;;;;5093241;28;20191;-72
2022/08/05 03:57:17;;;;;;;12.57;8.10;;;26.70;1.00;;;;;;5093156;28;20645;-73
2022/08/05 03:59:48;;;;;;;14.97;8.20;;;26.50;1.00;;;;;;5093735;28;20168;-72
2022/08/05 04:02:15;;;;;;;15.70;9.83;;;25.80;1.00;;;;;;5097787;28;20251;-72
2022/08/05 04:04:42;;;;;;;20.97;11.30;;;25.40;1.00;;;;;;5103678;28;20196;-73
2022/08/05 04:07:09;;;;;;;21.60;12.40;;;25.30;1.00;;;;;;5113711;28;20174;-73
2022/08/05 04:09:34;;;;;;;16.93;11.70;;;25.30;1.00;;;;;;5113345;28;20411;-73
2022/08/05 04:12:01;;;;;;;25.23;13.30;;;25.00;1.00;;;;;;5112502;28;20261;-73
2022/08/05 04:14:26;;;;;;;23.57;16.00;;;24.80;1.00;;;;;;5113697;28;20198;-73
2022/08/05 04:16:53;;;;;;;21.47;15.10;;;24.40;1.00;;;;;;5113124;28;20415;-73
2022/08/05 04:19:18;;;;;;;26.13;14.90;;;24.20;3.20;;;;;;5112783;28;20163;-73
2022/08/05 04:21:44;;;;;;;18.87;15.83;;;24.40;15.20;;;;;;5111989;28;20503;-73
2022/08/05 04:24:09;;;;;;;24.43;14.30;;;24.00;16.90;;;;;;5113049;28;20182;-73
2022/08/05 04:26:35;;;;;;;16.10;13.83;;;23.80;16.90;;;;;;5092459;28;20190;-72
2022/08/05 04:29:01;;;;;;;16.80;12.30;;;23.60;16.10;;;;;;5092489;28;20712;-72
2022/08/05 04:31:26;;;;;;;18.63;11.90;;;23.40;12.80;;;;;;5092020;28;20211;-72
2022/08/05 04:33:52;;;;;;;17.73;11.73;;;23.30;13.50;;;;;;5102766;28;20509;-72
2022/08/05 04:36:18;;;;;;;20.30;12.27;;;23.30;16.90;;;;;;5113230;28;20162;-72
2022/08/05 04:38:44;;;;;;;14.53;10.37;;;23.40;18.30;;;;;;5112526;28;20190;-73
2022/08/05 04:41:09;;;;;;;14.10;10.67;;;23.40;1.00;;;;;;5112603;28;20191;-72
2022/08/05 04:43:36;;;;;;;11.33;8.63;;;23.50;8.30;;;;;;5112640;28;20421;-73
2022/08/05 04:46:03;;;;;;;10.70;7.43;;;23.50;1.00;;;;;;5113419;28;20174;-73
2022/08/05 04:48:29;;;;;;;15.37;7.30;;;23.60;1.00;;;;;;5112706;28;20403;-73
2022/08/05 04:50:55;;;;;;;9.90;6.90;;;23.70;1.00;;;;;;5112369;28;20405;-71
2022/08/05 04:53:20;;;;;;;11.63;6.20;;;23.80;1.00;;;;;;5112253;28;20553;-72
2022/08/05 04:55:46;;;;;;;8.33;6.50;;;23.90;1.00;;;;;;5100582;28;20469;-73
2022/08/05 04:58:14;;;;;;;7.97;5.70;;;24.00;1.00;;;;;;5091606;28;20324;-73
2022/08/05 05:00:40;;;;;;;7.30;5.50;;;23.90;1.00;;;;;;5092388;28;20194;-72
2022/08/05 05:03:07;;;;;;;10.63;5.63;;;24.00;1.00;;;;;;5099702;28;20424;-73
2022/08/05 05:05:33;;;;;;;8.40;5.40;;;24.00;1.00;;;;;;5108314;28;20459;-72
2022/08/05 05:08:04;;;;;;;8.60;5.47;;;24.00;1.00;;;;;;5108292;28;20499;-73
2022/08/05 05:10:41;;;;;;;8.37;6.00;;;24.00;1.00;;;;;;5072550;28;20417;-73
2022/08/05 05:13:11;;;;;;;8.13;5.00;;;23.90;1.00;;;;;;5070984;28;20918;-73
2022/08/05 05:15:37;;;;;;;8.93;5.13;;;24.00;1.00;;;;;;5071745;28;20469;-72
2022/08/05 05:18:03;;;;;;;6.77;4.80;;;24.10;1.00;;;;;;5071438;28;20403;-72
2022/08/05 05:20:29;;;;;;;7.10;4.80;;;24.10;1.00;;;;;;5071587;28;20406;-72
2022/08/05 05:22:57;;;;;;;7.97;5.00;;;24.10;1.00;;;;;;5071023;28;20188;-73
2022/08/05 05:25:22;;;;;;;8.27;4.93;;;24.30;1.00;;;;;;5071390;28;20413;-72
2022/08/05 05:27:50;;;;;;;11.37;5.10;;;24.30;1.00;;;;;;5071238;28;20434;-72
2022/08/05 05:30:17;;;;;;;7.30;5.40;;;24.40;1.00;;;;;;5071653;28;20195;-72
2022/08/05 05:32:42;;;;;;;9.50;5.50;;;24.40;1.00;;;;;;5096116;28;20518;-72
2022/08/05 05:35:08;;;;;;;7.67;4.80;;;24.40;1.00;;;;;;5104945;28;20560;-72
2022/08/05 05:37:52;;;;;;;7.67;5.60;;;24.50;1.00;;;;;;5088001;28;20199;-73
2022/08/05 05:40:19;;;;;;;7.47;5.50;;;24.30;1.00;;;;;;5091595;28;20417;-73
2022/08/05 05:42:46;;;;;;;7.43;4.83;;;24.40;1.00;;;;;;5089447;28;20429;-71
2022/08/05 05:45:12;;;;;;;7.13;5.30;;;24.60;1.00;;;;;;5091797;28;20429;-73
2022/08/05 05:47:39;;;;;;;7.40;5.00;;;24.80;1.00;;;;;;5091036;28;20402;-73
2022/08/05 05:50:09;;;;;;;15.20;5.07;;;25.30;1.00;;;;;;5089738;28;20536;-74
2022/08/05 05:52:35;;;;;;;8.33;4.60;;;25.70;1.00;;;;;;5090615;28;20421;-74
2022/08/05 05:55:05;;;;;;;6.80;4.80;;;25.80;1.00;;;;;;5090941;28;20453;-73
2022/08/05 05:57:31;;;;;;;6.03;4.50;;;26.10;1.00;;;;;;5090919;28;20167;-73
2022/08/05 05:59:56;;;;;;;6.27;5.07;;;26.80;1.00;;;;;;5091631;28;20793;-72
2022/08/05 06:02:22;;;;;;;5.93;4.97;;;26.60;1.00;;;;;;5096723;28;20190;-72
2022/08/05 06:04:48;;;;;;;9.13;5.50;;;26.70;1.00;;;;;;5102673;28;20599;-73
2022/08/05 06:07:13;;;;;;;8.83;5.33;;;26.80;1.00;;;;;;5109966;28;20394;-73
2022/08/05 06:09:39;;;;;;;10.00;5.23;;;26.80;1.00;;;;;;5111237;28;20174;-73
2022/08/05 06:12:05;;;;;;;9.87;5.60;;;26.70;1.00;;;;;;5110448;28;20557;-73
2022/08/05 06:14:31;;;;;;;10.20;5.27;;;26.40;1.00;;;;;;5111138;28;20199;-73
2022/08/05 06:16:57;;;;;;;7.50;4.67;;;26.30;1.00;;;;;;5110857;28;20162;-73
2022/08/05 06:19:22;;;;;;;6.87;5.57;;;26.30;1.00;;;;;;5111008;28;20416;-73
2022/08/05 06:21:48;;;;;;;10.90;4.90;;;26.10;1.00;;;;;;5110593;28;20193;-74
2022/08/05 06:24:13;;;;;;;10.73;5.03;;;26.00;1.00;;;;;;5111037;28;20560;-74
2022/08/05 06:26:42;;;;;;;8.27;4.70;;;25.90;1.00;;;;;;5089647;28;20195;-73
2022/08/05 06:29:07;;;;;;;6.57;5.13;;;25.90;1.00;;;;;;5090323;28;20213;-74
2022/08/05 06:31:33;;;;;;;8.13;4.97;;;25.90;1.00;;;;;;5090224;28;20464;-74
2022/08/05 06:33:58;;;;;;;8.57;5.47;;;25.80;1.00;;;;;;5101644;28;20257;-74
2022/08/05 06:36:24;;;;;;;7.40;5.00;;;25.80;1.00;;;;;;5111209;28;20185;-73
2022/08/05 06:38:53;;;;;;;9.50;5.20;;;26.00;1.00;;;;;;5109256;28;20173;-73
2022/08/05 06:41:19;;;;;;;8.47;5.10;;;26.20;1.00;;;;;;5110454;28;20269;-74
2022/08/05 06:43:45;;;;;;;9.00;5.20;;;26.40;1.00;;;;;;5109782;28;20174;-73
2022/08/05 06:46:10;;;;;;;7.57;4.87;;;26.50;1.00;;;;;;5111035;28;20167;-73
2022/08/05 06:48:36;;;;;;;5.50;4.70;;;26.70;1.00;;;;;;5110048;28;20171;-74
2022/08/05 06:51:03;;;;;;;6.90;4.67;;;26.80;1.00;;;;;;5110142;28;20275;-73
2022/08/05 06:53:29;;;;;;;5.80;4.20;;;26.90;1.00;;;;;;5110283;28;20182;-74
2022/08/05 06:55:58;;;;;;;5.97;4.33;;;27.10;1.00;;;;;;5101314;28;20171;-73
2022/08/05 06:58:24;;;;;;;6.63;4.30;;;27.30;1.00;;;;;;5089510;28;20175;-73
2022/08/05 07:00:50;;;;;;;7.43;4.50;;;27.40;1.00;;;;;;5075349;28;20551;-73
2022/08/05 07:03:16;;;;;;;9.47;4.40;;;27.40;1.00;;;;;;5096535;28;20171;-72
2022/08/05 07:05:42;;;;;;;8.23;4.60;;;27.50;1.00;;;;;;5107782;28;20178;-74
2022/08/05 07:08:07;;;;;;;7.50;4.30;;;27.70;1.00;;;;;;5110686;28;20174;-73
2022/08/05 07:10:33;;;;;;;7.97;4.87;;;;;;;;;;5110357;28;20170;-73
2022/08/05 07:18:26;;;;;;;7.37;5.00;;;28.90;1.00;;;;;;5109975;28;20729;-72
2022/08/05 07:20:52;;;;;;;11.35;4.43;;;29.30;1.00;;;;;;5108500;28;20202;-71
2022/08/05 07:23:17;;;;;;;6.20;4.47;;;29.60;1.00;;;;;;5110286;28;20174;-72
2022/08/05 07:25:43;;;;;;;6.85;4.10;;;29.70;1.00;;;;;;5110196;28;20190;-71
2022/08/05 07:28:09;;;;;;;5.18;3.55;;;29.60;1.00;;;;;;5110212;28;20525;-72
2022/08/05 07:30:36;;;;;;;9.93;4.32;;;29.70;1.00;;;;;;5110438;28;20183;-72
2022/08/05 07:33:04;;;;;;;5.88;4.43;;;29.80;1.00;;;;;;5096271;28;20278;-73
2022/08/05 07:35:29;;;;;;;7.30;4.00;;;30.20;1.00;;;;;;5098877;28;20213;-73
2022/08/05 07:37:55;;;;;;;5.80;4.15;;;30.20;1.00;;;;;;5088628;28;20669;-72
2022/08/05 07:40:21;;;;;;;6.95;4.13;;;30.10;1.00;;;;;;5089649;28;20171;-73
2022/08/05 07:42:47;;;;;;;5.35;3.70;;;30.20;1.00;;;;;;5088858;28;20568;-73
2022/08/05 07:45:13;;;;;;;4.90;3.90;;;30.10;1.00;;;;;;5088838;28;20334;-73
2022/08/05 07:47:38;;;;;;;5.88;4.10;;;29.90;1.00;;;;;;5089621;28;20167;-72
2022/08/05 07:50:04;;;;;;;5.82;4.10;;;29.80;1.00;;;;;;5089624;28;20179;-72
2022/08/05 07:52:30;;;;;;;8.23;3.80;;;30.10;1.00;;;;;;5088983;28;20217;-72
2022/08/05 07:54:56;;;;;;;6.35;3.72;;;30.10;1.00;;;;;;5091394;28;20753;-72
2022/08/05 07:57:21;;;;;;;4.88;3.58;;;30.50;1.00;;;;;;5092677;28;20579;-72
2022/08/05 07:59:47;;;;;;;9.45;3.75;;;30.70;1.00;;;;;;5093604;28;20168;-73
2022/08/05 08:02:12;;;;;;;8.43;3.88;;;30.70;1.00;;;;;;5097720;28;20205;-73
2022/08/05 08:04:38;;;;;;;7.13;3.80;;;31.00;1.00;;;;;;5105005;28;20289;-72
2022/08/05 08:07:04;;;;;;;4.43;3.65;;;31.80;1.00;;;;;;5113405;28;20581;-73
2022/08/05 08:09:30;;;;;;;4.70;3.42;;;32.00;1.00;;;;;;5113577;28;20581;-73
2022/08/05 08:11:55;;;;;;;5.47;3.83;;;31.20;1.00;;;;;;5112651;28;20247;-73
2022/08/05 08:14:21;;;;;;;5.32;4.28;;;30.80;1.00;;;;;;5113751;28;20197;-73
2022/08/05 08:16:46;;;;;;;4.88;3.60;;;30.60;1.00;;;;;;5113210;28;20198;-72
2022/08/05 08:19:12;;;;;;;4.60;4.10;;;30.50;1.00;;;;;;5113280;28;20181;-73
2022/08/05 08:21:37;;;;;;;5.13;3.95;;;30.30;1.00;;;;;;5111196;28;20193;-73
2022/08/05 08:24:04;;;;;;;9.93;4.45;;;30.20;1.00;;;;;;5112958;28;20174;-73
2022/08/05 08:26:30;;;;;;;6.13;4.25;;;29.90;1.00;;;;;;5095020;28;20676;-73
2022/08/05 08:28:59;;;;;;;5.25;4.10;;;29.70;1.00;;;;;;5092677;28;20175;-72
2022/08/05 08:31:25;;;;;;;10.93;5.00;;;29.70;1.00;;;;;;5092179;28;20195;-73
2022/08/05 08:33:50;;;;;;;5.22;4.18;;;29.50;1.00;;;;;;5102460;28;20171;-73
2022/08/05 08:36:16;;;;;;;7.28;4.15;;;29.70;1.00;;;;;;5112996;28;20170;-73
2022/08/05 08:38:41;;;;;;;7.93;3.95;;;30.30;1.00;;;;;;5112701;28;20537;-73
2022/08/05 08:41:09;;;;;;;8.63;4.50;;;30.80;1.00;;;;;;5112488;28;20278;-72
2022/08/05 08:43:39;;;;;;;6.43;4.20;;;31.20;1.00;;;;;;5112610;28;20246;-73
2022/08/05 08:46:05;;;;;;;4.47;3.75;;;31.20;1.00;;;;;;5113170;28;20159;-73
2022/08/05 08:48:34;;;;;;;6.65;3.55;;;31.40;1.00;;;;;;5110862;28;20266;-74
2022/08/05 08:51:02;;;;;;;5.82;3.60;;;31.20;1.00;;;;;;5112836;28;20162;-73
2022/08/05 08:53:35;;;;;;;6.15;4.03;;;30.90;1.00;;;;;;5112332;28;20177;-73
2022/08/05 08:56:03;;;;;;;6.05;3.83;;;30.60;1.00;;;;;;5099185;28;20186;-73
2022/08/05 08:58:29;;;;;;;7.20;3.53;;;30.50;1.00;;;;;;5091504;28;20208;-74
2022/08/05 09:00:55;;;;;;;5.75;3.70;;;30.30;1.00;;;;;;5090721;28;20178;-73
2022/08/05 09:03:21;;;;;;;4.00;3.17;;;30.40;1.00;;;;;;5100002;28;20332;-74
2022/08/05 09:05:47;;;;;;;6.47;3.85;;;30.60;1.00;;;;;;5101242;28;20254;-74
2022/08/05 09:08:13;;;;;;;5.85;3.50;;;30.60;1.00;;;;;;5071922;28;20172;-74
2022/08/05 09:10:43;;;;;;;6.78;3.70;;;30.90;1.00;;;;;;5071767;28;20179;-74
2022/08/05 09:13:12;;;;;;;5.78;3.42;;;31.20;1.00;;;;;;5070970;28;20164;-74
2022/08/05 09:15:38;;;;;;;5.32;3.97;;;31.40;1.00;;;;;;5071667;28;20222;-73
2022/08/05 09:18:08;;;;;;;6.38;3.85;;;31.40;1.00;;;;;;5071838;28;20261;-72
2022/08/05 09:20:35;;;;;;;9.30;4.20;;;31.40;1.00;;;;;;5071530;28;20235;-72
2022/08/05 09:23:06;;;;;;;6.35;3.50;;;31.20;1.00;;;;;;5070900;28;20191;-72
2022/08/05 09:25:32;;;;;;;9.13;3.97;;;30.90;1.00;;;;;;5071230;28;20168;-73
2022/08/05 09:28:09;;;;;;;5.68;3.47;;;30.90;1.00;;;;;;5071194;28;20188;-73
2022/08/05 09:30:35;;;;;;;5.50;3.25;;;31.00;1.00;;;;;;5070259;28;20176;-73
2022/08/05 09:33:01;;;;;;;6.47;3.50;;;30.90;1.00;;;;;;5098642;28;20696;-73
2022/08/05 09:35:27;;;;;;;9.45;3.22;;;31.00;1.00;;;;;;5102195;28;20202;-73
2022/08/05 09:37:53;;;;;;;4.63;3.33;;;31.00;1.00;;;;;;5088676;28;20217;-73
2022/08/05 09:40:36;;;;;;;5.43;3.33;;;31.10;1.00;;;;;;5091212;28;20580;-73
2022/08/05 09:43:05;;;;;;;3.88;2.90;;;31.60;1.00;;;;;;5090377;28;20187;-74
2022/08/05 09:45:39;;;;;;;3.78;2.80;;;31.70;1.00;;;;;;5090224;28;20722;-73
2022/08/05 09:48:19;;;;;;;4.55;2.63;;;32.40;1.00;;;;;;5089939;28;20268;-73
2022/08/05 09:50:49;;;;;;;5.18;3.00;;;34.10;1.00;;;;;;5089537;28;20174;-73
2022/08/05 09:53:14;;;;;;;6.38;3.00;;;35.20;1.00;;;;;;5090156;28;20178;-73
2022/08/05 09:55:40;;;;;;;3.35;2.63;;;36.40;1.00;;;;;;5089499;28;20199;-73
2022/08/05 09:58:14;;;;;;;3.72;2.70;;;37.30;1.00;;;;;;5091096;28;20175;-74
2022/08/05 10:01:00;;;;;;;5.50;3.00;;;38.20;1.00;;;;;;5091196;28;20567;-74
2022/08/05 10:03:27;;;;;;;4.35;2.72;;;39.40;1.00;;;;;;5097588;28;20167;-74
2022/08/05 10:06:09;;;;;;;3.25;2.40;;;39.50;1.00;;;;;;5110246;28;20178;-74
2022/08/05 10:08:36;;;;;;;5.97;2.75;;;40.00;1.00;;;;;;5111068;28;20170;-74
2022/08/05 10:11:11;;;;;;;4.72;2.70;;;41.00;1.00;;;;;;5109499;28;20281;-74
2022/08/05 10:13:38;;;;;;;3.88;2.40;;;41.80;1.00;;;;;;5109625;28;20175;-74
2022/08/05 10:16:05;;;;;;;6.30;2.60;;;42.40;1.00;;;;;;5110110;28;20185;-74
2022/08/05 10:18:32;;;;;;;3.47;2.20;;;43.30;1.00;;;;;;5109516;28;20170;-74
2022/08/05 10:21:01;;;;;;;2.90;2.35;;;43.50;1.00;;;;;;5110897;28;20193;-73
2022/08/05 10:23:28;;;;;;;3.55;2.30;;;43.30;1.00;;;;;;5110882;28;20447;-74
2022/08/05 10:25:54;;;;;;;3.35;2.10;;;43.10;1.00;;;;;;5096519;28;20676;-74
2022/08/05 10:28:20;;;;;;;9.05;2.53;;;42.90;1.00;;;;;;5090440;28;20218;-74
2022/08/05 10:30:47;;;;;;;5.45;2.20;;;43.10;1.00;;;;;;5090699;28;20187;-74
2022/08/05 10:33:12;;;;;;;7.07;2.47;;;43.10;1.00;;;;;;5097150;28;20174;-74
2022/08/05 10:35:38;;;;;;;2.50;1.90;;;42.40;1.00;;;;;;5106424;28;20202;-74
2022/08/05 10:38:04;;;;;;;2.72;2.13;;;41.90;1.00;;;;;;5110848;28;20165;-74
2022/08/05 10:40:38;;;;;;;3.60;2.25;;;42.00;1.00;;;;;;5110658;28;20649;-74
2022/08/05 10:43:19;;;;;;;3.13;2.30;;;42.10;1.00;;;;;;5109915;28;20710;-74
2022/08/05 10:45:59;;;;;;;3.45;2.08;;;43.00;1.00;;;;;;5111039;28;20188;-74
2022/08/05 10:48:30;;;;;;;3.85;2.35;;;43.10;1.00;;;;;;5110727;28;20173;-74
2022/08/05 10:51:04;;;;;;;4.57;2.50;;;43.20;1.00;;;;;;5110426;28;20181;-74
2022/08/05 10:53:38;;;;;;;3.40;2.10;;;43.10;1.00;;;;;;5110268;28;20212;-73
2022/08/05 10:56:08;;;;;;;3.58;2.17;;;43.40;1.00;;;;;;5096755;28;20203;-74
2022/08/05 10:58:35;;;;;;;3.38;2.30;;;44.20;1.00;;;;;;5088389;28;20177;-74
2022/08/05 11:01:05;;;;;;;3.42;2.40;;;44.80;1.00;;;;;;5089805;28;20175;-74
2022/08/05 11:03:31;;;;;;;5.00;2.78;;;45.30;1.00;;;;;;5097810;28;20174;-74
2022/08/05 11:06:03;;;;;;;3.17;2.20;;;45.40;1.00;;;;;;5110518;28;20171;-74
2022/08/05 11:08:28;;;;;;;4.53;2.08;;;45.30;1.00;;;;;;5109942;28;20175;-74
2022/08/05 11:10:55;;;;;;;4.10;2.30;;;45.90;1.00;;;;;;5108902;28;20173;-74
2022/08/05 11:13:42;;;;;;;8.73;2.50;;;46.50;1.00;;;;;;5071796;28;20179;-74
2022/08/05 11:16:20;;;;;;;3.05;2.10;;;46.20;1.00;;;;;;5070338;28;20270;-74
2022/08/05 11:18:46;;;;;;;4.32;2.40;;;45.60;1.00;;;;;;5069154;28;20225;-74
2022/08/05 11:21:29;;;;;;;4.18;2.20;;;45.40;1.00;;;;;;5069534;28;20465;-74
2022/08/05 11:23:55;;;;;;;4.47;2.60;;;45.60;1.00;;;;;;5069533;28;20164;-74
2022/08/05 11:26:22;;;;;;;2.80;2.20;;;45.60;1.00;;;;;;5070051;28;20182;-74
2022/08/05 11:28:50;;;;;;;2.80;2.30;;;45.40;1.00;;;;;;5069755;28;20226;-74
2022/08/05 11:31:15;;;;;;;4.07;2.45;;;44.90;1.00;;;;;;5078788;28;20191;-74
2022/08/05 11:33:46;;;;;;;2.85;2.25;;;45.10;1.00;;;;;;5102366;28;20182;-74
2022/08/05 11:36:15;;;;;;;3.53;2.22;;;45.80;1.00;;;;;;5102206;28;20229;-74
2022/08/05 11:38:43;;;;;;;2.70;2.22;;;46.10;1.00;;;;;;5093126;28;20163;-74
2022/08/05 11:41:26;;;;;;;4.75;2.65;;;45.80;1.00;;;;;;5093409;28;20188;-74
2022/08/05 11:44:16;;;;;;;3.78;2.60;;;46.30;1.00;;;;;;5093372;28;20213;-74
2022/08/05 11:46:50;;;;;;;3.80;2.30;;;46.50;1.00;;;;;;5093993;28;20254;-74
2022/08/05 11:49:17;;;;;;;5.75;2.47;;;46.60;1.00;;;;;;5093660;28;20209;-74
2022/08/05 11:51:44;;;;;;;3.38;2.70;;;45.90;1.00;;;;;;5092914;28;20187;-73
2022/08/05 11:54:11;;;;;;;3.65;2.60;;;45.90;1.00;;;;;;5093181;28;20191;-74
2022/08/05 11:56:48;;;;;;;4.80;2.55;;;46.10;1.00;;;;;;5093694;28;20171;-74
2022/08/05 11:59:19;;;;;;;3.47;2.80;;;45.20;1.00;;;;;;5093614;28;20163;-73
2022/08/05 12:02:02;;;;;;;4.93;2.90;;;45.20;1.00;;;;;;5093876;28;20214;-73
2022/08/05 12:04:39;;;;;;;4.82;3.03;;;44.70;1.00;;;;;;5104947;28;20215;-73
2022/08/05 12:07:06;;;;;;;4.05;3.00;;;44.10;1.00;;;;;;5112388;28;20278;-74
2022/08/05 12:09:40;;;;;;;3.67;3.15;;;44.30;1.00;;;;;;5113461;28;20645;-74
2022/08/05 12:12:09;;;;;;;8.80;3.50;;;44.30;1.00;;;;;;5112657;28;20611;-74
2022/08/05 12:14:40;;;;;;;5.35;3.30;;;44.10;1.00;;;;;;5113754;28;20278;-74
2022/08/05 12:17:11;;;;;;;5.05;3.38;;;43.90;1.00;;;;;;5113515;28;20224;-75
2022/08/05 12:19:45;;;;;;;5.32;3.60;;;44.30;1.00;;;;;;5113325;28;20219;-74
2022/08/05 12:22:11;;;;;;;7.13;3.80;;;43.70;1.00;;;;;;5112598;28;20226;-74
2022/08/05 12:24:42;;;;;;;7.18;3.50;;;42.20;1.00;;;;;;5110955;28;20162;-74
2022/08/05 12:27:08;;;;;;;4.95;3.30;;;41.00;1.00;;;;;;5092202;28;20215;-73
2022/08/05 12:29:33;;;;;;;4.00;3.30;;;39.30;1.00;;;;;;5093162;28;20688;-73
2022/08/05 12:31:59;;;;;;;7.07;3.60;;;39.10;1.00;;;;;;5095229;28;20190;-74
2022/08/05 12:34:27;;;;;;;6.88;3.78;;;39.70;1.00;;;;;;5104421;28;20194;-74
2022/08/05 12:36:58;;;;;;;6.25;3.70;;;40.10;1.00;;;;;;5112981;28;20162;-73
2022/08/05 12:39:24;;;;;;;5.05;3.85;;;40.20;1.00;;;;;;5111604;28;20209;-73
2022/08/05 12:41:55;;;;;;;4.03;3.42;;;40.50;1.00;;;;;;5110891;28;20629;-73
2022/08/05 12:44:21;;;;;;;5.78;3.90;;;40.40;1.00;;;;;;5113260;28;20161;-73
2022/08/05 12:46:53;;;;;;;4.75;3.88;;;40.50;1.00;;;;;;5112735;28;20257;-73
2022/08/05 12:49:19;;;;;;;7.03;4.00;;;39.80;1.00;;;;;;5112868;28;20616;-74
2022/08/05 12:51:56;;;;;;;5.28;3.72;;;39.30;1.00;;;;;;5112149;28;20218;-73
2022/08/05 12:54:27;;;;;;;4.63;3.60;;;38.60;1.00;;;;;;5112566;28;20186;-73
2022/08/05 12:56:53;;;;;;;4.90;3.45;;;38.40;1.00;;;;;;5094895;28;20658;-74
2022/08/05 12:59:24;;;;;;;5.53;3.80;;;38.80;1.00;;;;;;5092628;28;20167;-74
2022/08/05 13:01:57;;;;;;;6.53;3.70;;;38.70;1.00;;;;;;5093380;28;20240;-74
2022/08/05 13:04:50;;;;;;;5.18;3.70;;;38.40;1.00;;;;;;5103950;28;20257;-74